Time;durP1;ratioP1;P1;durP2;ratioP2;P2;SDS_P1;SDS_P2;PMS_P1;PMS_P2;Temp;Humidity;BMP_temperature;BMP_pressure;BME280_temperature;BME280_humidity;BME280_pressure;Samples;Min_cycle;Max_cycle;Signal;HPM_P1;HPM_P2
2022/01/28 00:01:13;;;;;;;10.65;6.40;;;;;;;;;;5010812;28;20129;-87
2022/01/28 00:03:40;;;;;;;12.35;6.00;;;;;;;;;;4994403;28;20128;-88
2022/01/28 00:06:07;;;;;;;12.13;6.28;;;;;;;;;;4993776;28;20129;-87
2022/01/28 00:08:33;;;;;;;12.25;6.30;;;;;;;;;;4992263;28;20027;-87
2022/01/28 00:10:59;;;;;;;13.43;6.28;;;;;;;;;;4994627;28;20030;-87
2022/01/28 00:13:37;;;;;;;13.45;6.55;;;;;;;;;;4994487;28;20538;-87
2022/01/28 00:16:41;;;;;;;12.07;6.30;;;;;;;;;;5011931;28;20022;-87
2022/01/28 00:38:05;;;;;;;10.30;5.45;;;;;;;;;;4978770;28;20055;-86
2022/01/28 00:40:31;;;;;;;11.80;6.10;;;;;;;;;;5027479;28;20031;-86
2022/01/28 00:42:58;;;;;;;13.13;5.85;;;;;;;;;;4980538;28;20027;-86
2022/01/28 00:45:24;;;;;;;13.48;6.07;;;;;;;;;;4985478;28;20037;-86
2022/01/28 00:47:50;;;;;;;7.78;4.32;;;;;;;;;;4996663;28;20022;-86
2022/01/28 00:50:16;;;;;;;11.05;5.68;;;;;;;;;;5010961;28;20121;-87
2022/01/28 00:52:42;;;;;;;12.55;5.88;;;;;;;;;;5024671;28;20247;-86
2022/01/28 00:55:08;;;;;;;9.77;5.43;;;;;;;;;;4994168;28;20062;-87
2022/01/28 00:57:34;;;;;;;9.65;5.07;;;;;;;;;;4990038;28;20061;-86
2022/01/28 01:00:00;;;;;;;9.38;5.03;;;;;;;;;;4996311;28;20491;-86
2022/01/28 01:02:26;;;;;;;9.95;5.35;;;;;;;;;;4991934;28;20038;-87
2022/01/28 01:04:52;;;;;;;7.00;4.22;;;;;;;;;;4990903;28;20030;-86
2022/01/28 01:07:18;;;;;;;8.20;4.07;;;;;;;;;;5012864;28;20026;-87
2022/01/28 01:09:45;;;;;;;8.05;4.45;;;;;;;;;;4997348;28;20053;-87
2022/01/28 01:12:12;;;;;;;7.03;3.70;;;;;;;;;;5012407;28;20050;-87
2022/01/28 01:14:39;;;;;;;9.05;4.30;;;;;;;;;;4994481;28;20034;-87
2022/01/28 01:19:39;;;;;;;9.75;3.97;;;;;;;;;;4995287;28;20088;-87
2022/01/28 01:22:07;;;;;;;6.78;3.30;;;;;;;;;;4979072;28;20039;-86
2022/01/28 01:24:37;;;;;;;8.38;4.15;;;;;;;;;;5007589;28;20109;-86
2022/01/28 01:27:04;;;;;;;6.38;4.13;;;;;;;;;;4996931;28;20033;-86
2022/01/28 01:29:30;;;;;;;7.75;4.15;;;;;;;;;;4994455;28;20718;-87
2022/01/28 01:32:02;;;;;;;9.90;4.15;;;;;;;;;;4995736;28;20178;-85
2022/01/28 01:34:28;;;;;;;9.88;3.80;;;;;;;;;;5022324;28;20065;-87
2022/01/28 01:36:54;;;;;;;7.50;3.45;;;;;;;;;;4995536;28;20038;-87
2022/01/28 01:39:27;;;;;;;7.43;3.40;;;;;;;;;;5012315;28;20034;-87
2022/01/28 01:42:07;;;;;;;7.45;3.70;;;;;;;;;;5009170;28;20035;-87
2022/01/28 01:52:32;;;;;;;8.15;3.67;;;;;;;;;;4977393;28;20503;-86
2022/01/28 01:54:58;;;;;;;10.10;4.32;;;;;;;;;;5008940;28;20022;-86
2022/01/28 01:57:24;;;;;;;7.05;3.63;;;;;;;;;;4995081;28;20070;-86
2022/01/28 01:59:50;;;;;;;5.15;2.45;;;;;;;;;;5009942;28;20037;-85
2022/01/28 02:02:16;;;;;;;8.73;4.07;;;;;;;;;;4995153;28;20457;-86
2022/01/28 02:04:42;;;;;;;9.68;4.22;;;;;;;;;;5011658;28;20034;-86
2022/01/28 02:07:08;;;;;;;6.28;2.65;;;;;;;;;;4994853;28;20034;-86
2022/01/28 02:09:34;;;;;;;9.13;3.95;;;;;;;;;;5016352;28;20034;-86
2022/01/28 02:12:00;;;;;;;9.93;4.10;;;;;;;;;;4994422;28;20058;-86
2022/01/28 02:14:26;;;;;;;5.32;3.17;;;;;;;;;;4994839;28;20395;-87
2022/01/28 02:16:52;;;;;;;6.70;3.65;;;;;;;;;;4994966;28;20026;-86
2022/01/28 02:19:18;;;;;;;8.30;4.13;;;;;;;;;;5015478;28;20026;-87
2022/01/28 02:21:48;;;;;;;4.28;2.58;;;;;;;;;;4994976;28;20039;-87
2022/01/28 02:24:18;;;;;;;9.57;3.58;;;;;;;;;;4995252;28;20034;-87
2022/01/28 02:26:44;;;;;;;7.90;3.72;;;;;;;;;;4994879;28;20036;-87
2022/01/28 02:29:24;;;;;;;9.18;4.22;;;;;;;;;;4995468;28;20113;-86
2022/01/28 02:31:50;;;;;;;7.25;3.65;;;;;;;;;;5027904;28;20033;-86
2022/01/28 02:34:16;;;;;;;9.23;3.47;;;;;;;;;;5008879;28;20395;-86
2022/01/28 02:36:42;;;;;;;6.68;3.33;;;;;;;;;;4994131;28;20030;-86
2022/01/28 02:39:10;;;;;;;5.97;2.72;;;;;;;;;;4994348;28;20026;-84
2022/01/28 02:41:40;;;;;;;6.72;2.95;;;;;;;;;;4994577;28;20034;-85
2022/01/28 02:46:36;;;;;;;7.18;3.72;;;;;;;;;;4997064;28;20034;-87
2022/01/28 02:49:06;;;;;;;;;;;;;;;;;;5009517;28;20033;-85
2022/01/28 02:51:32;;;;;;;5.60;2.65;;;;;;;;;;5024516;28;20370;-85
2022/01/28 02:54:00;;;;;;;9.45;3.30;;;;;;;;;;5002022;28;20076;-86
2022/01/28 02:58:57;;;;;;;7.50;3.80;;;;;;;;;;4993156;28;20107;-85
2022/01/28 03:01:23;;;;;;;6.53;3.58;;;;;;;;;;5033340;28;20073;-84
2022/01/28 03:03:50;;;;;;;4.68;1.83;;;;;;;;;;5013863;28;20089;-85
2022/01/28 03:06:17;;;;;;;8.38;3.75;;;;;;;;;;5001171;28;20395;-86
2022/01/28 03:08:51;;;;;;;6.65;3.42;;;;;;;;;;5012138;28;20036;-87
2022/01/28 03:11:31;;;;;;;8.27;2.95;;;;;;;;;;5024788;28;20034;-86
2022/01/28 03:16:30;;;;;;;6.25;2.78;;;;;;;;;;4976496;28;20537;-87
2022/01/28 03:19:12;;;;;;;4.43;2.45;;;;;;;;;;5006422;28;20030;-88
2022/01/28 03:21:42;;;;;;;6.95;3.35;;;;;;;;;;5013144;28;20046;-87
2022/01/28 03:24:09;;;;;;;6.18;2.88;;;;;;;;;;4987498;28;20026;-87
2022/01/28 03:26:36;;;;;;;4.50;2.13;;;;;;;;;;4992255;28;20019;-87
2022/01/28 03:29:02;;;;;;;3.80;2.10;;;;;;;;;;4994030;28;20034;-88
2022/01/28 03:31:28;;;;;;;5.43;2.97;;;;;;;;;;5010202;28;20026;-87
2022/01/28 03:33:54;;;;;;;8.98;3.40;;;;;;;;;;5006936;28;20034;-86
2022/01/28 03:36:20;;;;;;;7.47;3.03;;;;;;;;;;4993944;28;20181;-87
2022/01/28 03:38:48;;;;;;;9.77;3.50;;;;;;;;;;5009978;28;20121;-87
2022/01/28 03:41:17;;;;;;;11.00;3.25;;;;;;;;;;4991004;28;20480;-86
2022/01/28 03:43:47;;;;;;;6.70;3.00;;;;;;;;;;4998520;28;20014;-86
2022/01/28 03:46:14;;;;;;;5.00;2.65;;;;;;;;;;4997970;28;20030;-86
2022/01/28 03:48:40;;;;;;;7.50;3.95;;;;;;;;;;4995719;28;20038;-86
2022/01/28 03:51:06;;;;;;;7.13;3.60;;;;;;;;;;4993229;28;20026;-86
2022/01/28 03:53:32;;;;;;;6.30;3.53;;;;;;;;;;4996390;28;20112;-84
2022/01/28 03:55:58;;;;;;;6.30;2.72;;;;;;;;;;4996770;28;20026;-85
2022/01/28 03:58:25;;;;;;;5.80;2.20;;;;;;;;;;4990542;28;20019;-88
2022/01/28 04:00:53;;;;;;;5.32;2.45;;;;;;;;;;4996345;28;20046;-87
2022/01/28 04:11:28;;;;;;;5.95;3.00;;;;;;;;;;4996373;28;20100;-86
2022/01/28 04:14:06;;;;;;;5.07;2.17;;;;;;;;;;4997919;28;20037;-86
2022/01/28 04:19:19;;;;;;;4.45;2.13;;;;;;;;;;4983307;28;20042;-88
2022/01/28 04:21:45;;;;;;;5.15;2.63;;;;;;;;;;4997339;28;20093;-86
2022/01/28 04:24:11;;;;;;;7.32;3.53;;;;;;;;;;4994261;28;20436;-88
2022/01/28 04:26:37;;;;;;;4.25;2.42;;;;;;;;;;4995182;28;20069;-87
2022/01/28 04:29:03;;;;;;;8.07;3.05;;;;;;;;;;4995498;28;20030;-87
2022/01/28 04:31:29;;;;;;;6.32;3.22;;;;;;;;;;5014910;28;20022;-87
2022/01/28 04:33:55;;;;;;;5.45;2.80;;;;;;;;;;4994909;28;20084;-87
2022/01/28 04:36:25;;;;;;;5.45;2.60;;;;;;;;;;4992938;28;20034;-87
2022/01/28 04:39:10;;;;;;;8.85;3.17;;;;;;;;;;4987089;28;20518;-87
2022/01/28 04:44:24;;;;;;;7.20;3.30;;;;;;;;;;4989258;28;20455;-88
2022/01/28 05:03:02;;;;;;;5.15;2.72;;;;;;;;;;4993167;28;20065;-86
2022/01/28 05:08:42;;;;;;;4.90;2.47;;;;;;;;;;4996423;28;20034;-86
2022/01/28 05:13:32;;;;;;;7.55;2.92;;;;;;;;;;4992426;28;20553;-86
2022/01/28 05:26:40;;;;;;;6.00;2.58;;;;;;;;;;4981633;28;20281;-85
2022/01/28 05:29:06;;;;;;;6.18;3.05;;;;;;;;;;4990551;28;20130;-87
2022/01/28 05:31:32;;;;;;;2.53;1.35;;;;;;;;;;5013008;28;20030;-87
2022/01/28 05:33:58;;;;;;;6.50;3.20;;;;;;;;;;4992198;28;20041;-86
2022/01/28 05:36:25;;;;;;;7.40;2.65;;;;;;;;;;4992550;28;20026;-85
2022/01/28 05:38:51;;;;;;;6.38;3.00;;;;;;;;;;4990742;28;20029;-86
2022/01/28 05:41:17;;;;;;;5.68;2.38;;;;;;;;;;4991291;28;20042;-86
2022/01/28 05:43:43;;;;;;;4.10;2.20;;;;;;;;;;5017027;28;20030;-86
2022/01/28 05:46:09;;;;;;;5.05;2.83;;;;;;;;;;4991432;28;20498;-86
2022/01/28 05:48:35;;;;;;;5.00;2.75;;;;;;;;;;4985006;28;20034;-86
2022/01/28 05:51:01;;;;;;;6.63;2.88;;;;;;;;;;4987788;28;20026;-85
2022/01/28 05:53:27;;;;;;;3.95;1.88;;;;;;;;;;4986877;28;20026;-86
2022/01/28 05:55:54;;;;;;;4.68;2.20;;;;;;;;;;4985663;28;20490;-86
2022/01/28 05:58:19;;;;;;;2.95;1.42;;;;;;;;;;5008921;28;20022;-87
2022/01/28 06:00:46;;;;;;;4.15;1.88;;;;;;;;;;4990416;28;20501;-87
2022/01/28 06:03:12;;;;;;;4.85;1.83;;;;;;;;;;4985633;28;20333;-87
2022/01/28 06:05:38;;;;;;;2.80;1.63;;;;;;;;;;5004896;28;20491;-87
2022/01/28 06:08:04;;;;;;;2.63;1.27;;;;;;;;;;4982923;28;20113;-87
2022/01/28 06:10:30;;;;;;;4.65;1.40;;;;;;;;;;4988773;28;20022;-87
2022/01/28 06:12:56;;;;;;;2.65;1.23;;;;;;;;;;4983253;28;20170;-87
2022/01/28 06:15:22;;;;;;;1.17;0.70;;;;;;;;;;4988918;28;20046;-87
2022/01/28 06:17:48;;;;;;;0.90;0.70;;;;;;;;;;4985354;28;20053;-87
2022/01/28 06:20:19;;;;;;;1.15;0.40;;;;;;;;;;4980541;28;20045;-87
2022/01/28 06:22:45;;;;;;;0.20;0.10;;;;;;;;;;5000477;28;20018;-88
2022/01/28 06:25:13;;;;;;;0.10;0.10;;;;;;;;;;4987024;28;20154;-88
2022/01/28 06:27:39;;;;;;;0.30;0.28;;;;;;;;;;4983924;28;20022;-88
2022/01/28 06:30:06;;;;;;;0.10;0.10;;;;;;;;;;4986218;28;20137;-88
2022/01/28 06:32:32;;;;;;;3.97;0.10;;;;;;;;;;4987078;28;20117;-87
2022/01/28 06:35:07;;;;;;;1.38;0.20;;;;;;;;;;4981721;28;20017;-87
2022/01/28 06:37:33;;;;;;;0.10;0.10;;;;;;;;;;4983702;28;20022;-86
2022/01/28 06:39:59;;;;;;;0.17;0.10;;;;;;;;;;4984578;28;20027;-88
2022/01/28 06:42:25;;;;;;;0.00;0.00;;;;;;;;;;4985636;28;20022;-87
2022/01/28 06:44:51;;;;;;;0.30;0.10;;;;;;;;;;4984132;28;20372;-87
2022/01/28 06:47:17;;;;;;;0.25;0.20;;;;;;;;;;4984414;28;20034;-88
2022/01/28 06:49:43;;;;;;;0.10;0.10;;;;;;;;;;4990841;28;20021;-87
2022/01/28 06:52:10;;;;;;;1.17;0.17;;;;;;;;;;4989839;28;20086;-87
2022/01/28 06:54:36;;;;;;;0.35;0.00;;;;;;;;;;4991185;28;20038;-87
2022/01/28 06:57:02;;;;;;;0.32;0.10;;;;;;;;;;4990383;28;20037;-87
2022/01/28 06:59:28;;;;;;;0.30;0.10;;;;;;;;;;4990029;28;20027;-88
2022/01/28 07:01:55;;;;;;;0.50;0.40;;;;;;;;;;4994041;28;20061;-87
2022/01/28 07:04:21;;;;;;;0.90;0.55;;;;;;;;;;5012632;28;20499;-88
2022/01/28 07:06:46;;;;;;;3.90;1.08;;;;;;;;;;4989041;28;20061;-88
2022/01/28 07:09:13;;;;;;;1.73;0.80;;;;;;;;;;4989409;28;20019;-88
2022/01/28 07:11:39;;;;;;;1.95;0.52;;;;;;;;;;4992359;28;20047;-88
2022/01/28 07:14:05;;;;;;;0.20;0.15;;;;;;;;;;4992314;28;20026;-88
2022/01/28 07:16:31;;;;;;;1.33;0.20;;;;;;;;;;5012675;28;20061;-88
2022/01/28 07:18:57;;;;;;;0.47;0.17;;;;;;;;;;4989228;28;20026;-85
2022/01/28 07:21:23;;;;;;;0.28;0.20;;;;;;;;;;4988253;28;20178;-85
2022/01/28 07:23:49;;;;;;;0.08;0.08;;;;;;;;;;4990359;28;20113;-84
2022/01/28 07:26:15;;;;;;;1.85;0.05;;;;;;;;;;4990138;28;20046;-83
2022/01/28 07:28:41;;;;;;;0.08;0.00;;;;;;;;;;5013108;28;20041;-87
2022/01/28 07:31:14;;;;;;;0.00;0.00;;;;;;;;;;4991610;28;20030;-86
2022/01/28 07:33:40;;;;;;;2.10;0.10;;;;;;;;;;4988719;28;20113;-87
2022/01/28 07:36:06;;;;;;;0.10;0.10;;;;;;;;;;4988123;28;20110;-87
2022/01/28 07:38:32;;;;;;;1.27;0.45;;;;;;;;;;4987135;28;20030;-87
2022/01/28 07:40:59;;;;;;;0.40;0.10;;;;;;;;;;4991087;28;20038;-87
2022/01/28 07:43:25;;;;;;;0.40;0.10;;;;;;;;;;4990216;28;20415;-87
2022/01/28 07:45:51;;;;;;;0.10;0.10;;;;;;;;;;4987052;28;20030;-86
2022/01/28 07:48:17;;;;;;;0.00;0.00;;;;;;;;;;4988724;28;20027;-87
2022/01/28 07:50:43;;;;;;;0.00;0.00;;;;;;;;;;4987197;28;20121;-87
2022/01/28 07:53:13;;;;;;;1.25;0.13;;;;;;;;;;4989875;28;20503;-86
2022/01/28 07:55:39;;;;;;;0.75;0.45;;;;;;;;;;4991985;28;20038;-86
2022/01/28 07:58:05;;;;;;;0.13;0.03;;;;;;;;;;4985830;28;20038;-86
2022/01/28 08:00:31;;;;;;;0.00;0.00;;;;;;;;;;4989506;28;20049;-86
2022/01/28 08:02:57;;;;;;;0.10;0.10;;;;;;;;;;4991229;28;20031;-85
2022/01/28 08:05:23;;;;;;;0.32;0.10;;;;;;;;;;5003815;28;20026;-86
2022/01/28 08:07:51;;;;;;;0.17;0.10;;;;;;;;;;4992141;28;20030;-86
2022/01/28 08:10:17;;;;;;;0.10;0.00;;;;;;;;;;4988533;28;20038;-86
2022/01/28 08:12:46;;;;;;;0.03;0.03;;;;;;;;;;4990686;28;20053;-86
2022/01/28 08:15:12;;;;;;;0.00;0.00;;;;;;;;;;4990740;28;20117;-86
2022/01/28 08:17:38;;;;;;;0.10;0.10;;;;;;;;;;4988129;28;20162;-85
2022/01/28 08:20:04;;;;;;;0.10;0.10;;;;;;;;;;4989696;28;20027;-88
2022/01/28 08:22:31;;;;;;;0.20;0.10;;;;;;;;;;5017726;28;20026;-88
2022/01/28 08:24:57;;;;;;;0.25;0.13;;;;;;;;;;4988963;28;20475;-88
2022/01/28 08:27:23;;;;;;;0.30;0.05;;;;;;;;;;4989046;28;20022;-88
2022/01/28 08:29:48;;;;;;;0.45;0.20;;;;;;;;;;4995460;28;20026;-88
2022/01/28 08:32:14;;;;;;;0.17;0.10;;;;;;;;;;4993551;28;20065;-87
2022/01/28 08:34:41;;;;;;;0.03;0.00;;;;;;;;;;5022876;28;20030;-88
2022/01/28 08:37:07;;;;;;;0.20;0.15;;;;;;;;;;4992944;28;20038;-86
2022/01/28 08:39:35;;;;;;;0.13;0.10;;;;;;;;;;4992000;28;20031;-87
2022/01/28 08:42:01;;;;;;;;;;;;;;;;;;4992923;28;20084;-87
2022/01/28 08:44:27;;;;;;;0.10;0.10;;;;;;;;;;5007999;28;19918;-87
2022/01/28 08:46:53;;;;;;;0.15;0.10;;;;;;;;;;4994871;28;20022;-87
2022/01/28 08:49:19;;;;;;;2.33;0.20;;;;;;;;;;5015373;28;20089;-87
2022/01/28 08:51:45;;;;;;;1.05;0.13;;;;;;;;;;4993223;28;20022;-87
2022/01/28 08:54:11;;;;;;;0.52;0.10;;;;;;;;;;4994230;28;20026;-87
2022/01/28 08:56:37;;;;;;;0.10;0.10;;;;;;;;;;4991510;28;20035;-87
2022/01/28 08:59:03;;;;;;;0.08;0.08;;;;;;;;;;4995357;28;20031;-87
2022/01/28 09:01:30;;;;;;;0.17;0.10;;;;;;;;;;5012782;28;20038;-87
2022/01/28 09:03:56;;;;;;;0.10;0.10;;;;;;;;;;4995504;28;20026;-87
2022/01/28 09:06:22;;;;;;;0.00;0.00;;;;;;;;;;4992658;28;20118;-87
2022/01/28 09:08:49;;;;;;;0.10;0.10;;;;;;;;;;4991338;28;20105;-87
2022/01/28 09:13:47;;;;;;;0.60;0.10;;;;;;;;;;4996561;28;20113;-87
2022/01/28 09:16:13;;;;;;;0.10;0.10;;;;;;;;;;4992001;28;20038;-87
2022/01/28 09:18:39;;;;;;;0.10;0.10;;;;;;;;;;4992925;28;20050;-87
2022/01/28 09:21:05;;;;;;;0.03;0.00;;;;;;;;;;4990247;28;20112;-86
2022/01/28 09:23:31;;;;;;;0.00;0.00;;;;;;;;;;4992147;28;20091;-87
2022/01/28 09:25:57;;;;;;;0.05;0.00;;;;;;;;;;4993413;28;20026;-87
2022/01/28 09:28:23;;;;;;;0.00;0.00;;;;;;;;;;4993678;28;20479;-87
2022/01/28 09:30:49;;;;;;;0.05;0.00;;;;;;;;;;4991977;28;20042;-87
2022/01/28 09:33:16;;;;;;;0.10;0.00;;;;;;;;;;4990527;28;20509;-87
2022/01/28 09:35:42;;;;;;;0.13;0.13;;;;;;;;;;4990588;28;20031;-87
2022/01/28 09:38:08;;;;;;;0.00;0.00;;;;;;;;;;4992285;28;20032;-87
2022/01/28 09:40:34;;;;;;;0.10;0.10;;;;;;;;;;5023765;28;20026;-87
2022/01/28 09:43:01;;;;;;;0.22;0.10;;;;;;;;;;4991755;28;20435;-87
2022/01/28 09:45:27;;;;;;;0.40;0.20;;;;;;;;;;4990768;28;20023;-87
2022/01/28 09:47:56;;;;;;;0.17;0.10;;;;;;;;;;4992633;28;20022;-87
2022/01/28 09:50:23;;;;;;;0.20;0.10;;;;;;;;;;5008123;28;20023;-87
2022/01/28 09:52:52;;;;;;;0.10;0.10;;;;;;;;;;5003088;28;20035;-87
2022/01/28 09:55:19;;;;;;;0.00;0.00;;;;;;;;;;5007971;28;20030;-87
2022/01/28 09:57:47;;;;;;;0.10;0.10;;;;;;;;;;4991268;28;20073;-86
2022/01/28 10:00:13;;;;;;;;;;;;;;;;;;4992116;28;20102;-87
2022/01/28 10:02:51;;;;;;;0.35;0.10;;;;;;;;;;4990648;28;20551;-86
2022/01/28 10:05:17;;;;;;;;;;;;;;;;;;5005348;28;20037;-86
2022/01/28 10:07:58;;;;;;;0.00;0.00;;;;;;;;;;5014235;28;19931;-87
2022/01/28 10:10:24;;;;;;;0.20;0.10;;;;;;;;;;4992010;28;20475;-86
2022/01/28 10:13:09;;;;;;;0.00;0.00;;;;;;;;;;4989753;28;20062;-86
2022/01/28 10:15:35;;;;;;;0.10;0.10;;;;;;;;;;4990022;28;20038;-86
2022/01/28 10:18:01;;;;;;;0.00;0.00;;;;;;;;;;4993471;28;20112;-85
2022/01/28 10:20:28;;;;;;;0.10;0.10;;;;;;;;;;4989367;28;20031;-85
2022/01/28 10:22:59;;;;;;;0.20;0.10;;;;;;;;;;4992286;28;20070;-88
2022/01/28 10:25:26;;;;;;;0.13;0.13;;;;;;;;;;4991997;28;20473;-85
2022/01/28 10:27:56;;;;;;;0.25;0.20;;;;;;;;;;4989594;28;20097;-87
2022/01/28 10:30:22;;;;;;;0.08;0.00;;;;;;;;;;4990445;28;20494;-87
2022/01/28 10:33:08;;;;;;;0.00;0.00;;;;;;;;;;4990684;28;20026;-87
2022/01/28 10:35:34;;;;;;;0.63;0.22;;;;;;;;;;4988560;28;20030;-85
2022/01/28 10:38:02;;;;;;;0.10;0.10;;;;;;;;;;4991437;28;20030;-86
2022/01/28 10:40:28;;;;;;;0.00;0.00;;;;;;;;;;5007333;28;20023;-85
2022/01/28 10:42:54;;;;;;;0.00;0.00;;;;;;;;;;4989896;28;20038;-86
2022/01/28 10:45:21;;;;;;;0.10;0.00;;;;;;;;;;4988747;28;20057;-86
2022/01/28 10:47:54;;;;;;;0.10;0.10;;;;;;;;;;4988283;28;20022;-85
2022/01/28 10:50:26;;;;;;;0.43;0.13;;;;;;;;;;5006022;28;20038;-85
2022/01/28 10:53:08;;;;;;;0.10;0.10;;;;;;;;;;4996161;28;20065;-86
2022/01/28 10:55:36;;;;;;;0.17;0.10;;;;;;;;;;4990460;28;20133;-84
2022/01/28 10:58:13;;;;;;;0.00;0.00;;;;;;;;;;4989421;28;20022;-86
2022/01/28 11:00:43;;;;;;;0.10;0.10;;;;;;;;;;4988126;28;20047;-86
2022/01/28 11:03:10;;;;;;;0.20;0.10;;;;;;;;;;5006120;28;20387;-84
2022/01/28 11:05:37;;;;;;;0.00;0.00;;;;;;;;;;5004591;28;20038;-85
2022/01/28 11:08:05;;;;;;;0.13;0.10;;;;;;;;;;4991096;28;20022;-86
2022/01/28 11:10:31;;;;;;;0.05;0.05;;;;;;;;;;5007906;28;20050;-86
2022/01/28 11:12:58;;;;;;;0.08;0.03;;;;;;;;;;5004170;28;20438;-85
2022/01/28 11:15:24;;;;;;;0.32;0.20;;;;;;;;;;5000418;28;20037;-86
2022/01/28 11:17:50;;;;;;;0.10;0.10;;;;;;;;;;4981054;28;20025;-86
2022/01/28 11:20:20;;;;;;;0.00;0.00;;;;;;;;;;5002434;28;20030;-87
2022/01/28 11:23:04;;;;;;;0.00;0.00;;;;;;;;;;4985320;28;20039;-85
2022/01/28 11:25:40;;;;;;;0.00;0.00;;;;;;;;;;4980889;28;20549;-84
2022/01/28 11:28:07;;;;;;;0.60;0.30;;;;;;;;;;4981553;28;20039;-84
2022/01/28 11:30:33;;;;;;;0.10;0.10;;;;;;;;;;4978098;28;20534;-85
2022/01/28 11:33:01;;;;;;;0.00;0.00;;;;;;;;;;4980907;28;20206;-85
2022/01/28 11:35:28;;;;;;;0.10;0.10;;;;;;;;;;4984386;28;20493;-86
2022/01/28 11:38:01;;;;;;;0.43;0.10;;;;;;;;;;5004135;28;20084;-85
2022/01/28 11:40:27;;;;;;;0.10;0.10;;;;;;;;;;4990629;28;20031;-87
2022/01/28 11:43:12;;;;;;;0.20;0.20;;;;;;;;;;4990843;28;20038;-87
2022/01/28 11:45:42;;;;;;;0.13;0.13;;;;;;;;;;5003577;28;20475;-87
2022/01/28 11:48:08;;;;;;;0.10;0.10;;;;;;;;;;5007973;28;20538;-87
2022/01/28 11:50:34;;;;;;;0.00;0.00;;;;;;;;;;4988443;28;20023;-87
2022/01/28 11:53:00;;;;;;;2.10;0.13;;;;;;;;;;5019570;28;20624;-85
2022/01/28 11:55:26;;;;;;;0.20;0.20;;;;;;;;;;5003600;28;20054;-86
2022/01/28 11:57:55;;;;;;;0.52;0.10;;;;;;;;;;4987737;28;20068;-86
2022/01/28 12:00:23;;;;;;;0.00;0.00;;;;;;;;;;5002353;28;20553;-86
2022/01/28 12:02:50;;;;;;;0.10;0.10;;;;;;;;;;4988848;28;20027;-86
2022/01/28 12:05:31;;;;;;;0.10;0.10;;;;;;;;;;5010023;28;20114;-86
2022/01/28 12:08:03;;;;;;;0.10;0.10;;;;;;;;;;5011837;28;20368;-86
2022/01/28 12:10:31;;;;;;;0.10;0.10;;;;;;;;;;5009945;28;20573;-86
2022/01/28 12:13:00;;;;;;;0.63;0.08;;;;;;;;;;5008432;28;20057;-86
2022/01/28 12:15:28;;;;;;;0.10;0.10;;;;;;;;;;4991501;28;20109;-86
2022/01/28 12:18:05;;;;;;;0.30;0.20;;;;;;;;;;5004775;28;20026;-86
2022/01/28 12:20:37;;;;;;;0.10;0.10;;;;;;;;;;5007440;28;20049;-86
2022/01/28 12:23:04;;;;;;;0.10;0.10;;;;;;;;;;4993426;28;20401;-87
2022/01/28 12:25:37;;;;;;;0.00;0.00;;;;;;;;;;5008485;28;20037;-87
2022/01/28 12:28:12;;;;;;;0.00;0.00;;;;;;;;;;5003638;28;20276;-86
2022/01/28 12:30:38;;;;;;;0.10;0.08;;;;;;;;;;4991024;28;20030;-87
2022/01/28 12:33:04;;;;;;;0.10;0.10;;;;;;;;;;4988877;28;20027;-87
2022/01/28 12:35:31;;;;;;;0.10;0.10;;;;;;;;;;4984098;28;20031;-87
2022/01/28 12:38:02;;;;;;;0.03;0.00;;;;;;;;;;5024258;28;20022;-87
2022/01/28 12:40:36;;;;;;;0.45;0.32;;;;;;;;;;5012478;28;20023;-87
2022/01/28 12:43:03;;;;;;;0.57;0.43;;;;;;;;;;5011139;28;20038;-87
2022/01/28 12:45:29;;;;;;;0.40;0.20;;;;;;;;;;5012906;28;20070;-85
2022/01/28 12:47:55;;;;;;;0.40;0.13;;;;;;;;;;4990386;28;20776;-86
2022/01/28 12:50:21;;;;;;;0.03;0.03;;;;;;;;;;4991930;28;20387;-85
2022/01/28 12:52:47;;;;;;;0.00;0.00;;;;;;;;;;5010547;28;20032;-84
2022/01/28 12:55:14;;;;;;;0.10;0.10;;;;;;;;;;5013788;28;20022;-86
2022/01/28 12:57:43;;;;;;;0.10;0.03;;;;;;;;;;4990437;28;20117;-85
2022/01/28 13:00:10;;;;;;;0.08;0.08;;;;;;;;;;4990828;28;20031;-86
2022/01/28 13:02:36;;;;;;;0.22;0.13;;;;;;;;;;4993298;28;20081;-86
2022/01/28 13:10:17;;;;;;;0.00;0.00;;;;;;;;;;4991772;28;20117;-86
2022/01/28 13:12:45;;;;;;;1.90;0.20;;;;;;;;;;4990290;28;20088;-85
2022/01/28 13:15:12;;;;;;;0.10;0.10;;;;;;;;;;4990532;28;20030;-86
2022/01/28 13:17:39;;;;;;;1.08;0.10;;;;;;;;;;4988514;28;20061;-86
2022/01/28 13:20:09;;;;;;;0.00;0.00;;;;;;;;;;4976941;28;20054;-85
2022/01/28 13:22:35;;;;;;;0.68;0.08;;;;;;;;;;5008457;28;20034;-86
2022/01/28 13:25:01;;;;;;;0.30;0.20;;;;;;;;;;4991874;28;20391;-86
2022/01/28 13:27:44;;;;;;;0.45;0.10;;;;;;;;;;4990668;28;20044;-86
2022/01/28 13:30:15;;;;;;;0.55;0.13;;;;;;;;;;4992055;28;20080;-86
2022/01/28 13:32:43;;;;;;;0.30;0.25;;;;;;;;;;4990241;28;20085;-86
2022/01/28 13:35:13;;;;;;;0.10;0.10;;;;;;;;;;4992468;28;20132;-85
2022/01/28 13:37:46;;;;;;;0.00;0.00;;;;;;;;;;4994003;28;20026;-86
2022/01/28 13:40:19;;;;;;;0.10;0.10;;;;;;;;;;4985953;28;20030;-86
2022/01/28 13:43:03;;;;;;;0.20;0.15;;;;;;;;;;4991127;28;20136;-86
2022/01/28 13:45:37;;;;;;;0.20;0.20;;;;;;;;;;4991858;28;20369;-84
2022/01/28 13:48:05;;;;;;;0.00;0.00;;;;;;;;;;4991804;28;20037;-85
2022/01/28 13:50:31;;;;;;;;;;;;;;;;;;4989429;28;20502;-85
2022/01/28 13:53:18;;;;;;;0.10;0.10;;;;;;;;;;5005351;28;19906;-85
2022/01/28 13:55:44;;;;;;;0.25;0.13;;;;;;;;;;5000080;28;20031;-85
2022/01/28 13:58:10;;;;;;;4.60;0.30;;;;;;;;;;4987785;28;20041;-85
2022/01/28 14:00:41;;;;;;;0.00;0.00;;;;;;;;;;5005114;28;20117;-85
2022/01/28 14:03:14;;;;;;;0.00;0.00;;;;;;;;;;4989429;28;20578;-85
2022/01/28 14:05:49;;;;;;;0.28;0.10;;;;;;;;;;4988943;28;20398;-85
2022/01/28 14:08:15;;;;;;;1.30;0.60;;;;;;;;;;4991001;28;20161;-84
2022/01/28 14:10:41;;;;;;;0.77;0.45;;;;;;;;;;5012907;28;20084;-84
2022/01/28 14:13:21;;;;;;;0.70;0.50;;;;;;;;;;4989977;28;20054;-85
2022/01/28 14:16:11;;;;;;;0.60;0.38;;;;;;;;;;4990332;28;20026;-86
2022/01/28 14:18:37;;;;;;;1.38;0.20;;;;;;;;;;4989152;28;20042;-86
2022/01/28 14:21:03;;;;;;;1.27;0.73;;;;;;;;;;4990098;28;20037;-85
2022/01/28 14:23:29;;;;;;;0.98;0.40;;;;;;;;;;4989429;28;20077;-85
2022/01/28 14:25:55;;;;;;;0.43;0.25;;;;;;;;;;4991369;28;20378;-84
2022/01/28 14:30:55;;;;;;;0.10;0.10;;;;;;;;;;4989604;28;20499;-85
2022/01/28 14:33:21;;;;;;;0.10;0.10;;;;;;;;;;4988862;28;20165;-85
2022/01/28 14:35:47;;;;;;;1.08;0.20;;;;;;;;;;4988926;28;20046;-85
2022/01/28 14:38:13;;;;;;;0.30;0.30;;;;;;;;;;4991557;28;20065;-85
2022/01/28 14:40:40;;;;;;;0.15;0.15;;;;;;;;;;5007483;28;20509;-86
2022/01/28 14:43:06;;;;;;;2.20;1.55;;;;;;;;;;4988252;28;20040;-85
2022/01/28 14:45:32;;;;;;;1.45;0.63;;;;;;;;;;4990754;28;20491;-86
2022/01/28 14:47:58;;;;;;;0.20;0.20;;;;;;;;;;4988665;28;20435;-86
2022/01/28 14:50:25;;;;;;;0.08;0.00;;;;;;;;;;4989721;28;20065;-85
2022/01/28 14:52:50;;;;;;;0.20;0.20;;;;;;;;;;4992309;28;20096;-85
2022/01/28 14:55:17;;;;;;;0.90;0.50;;;;;;;;;;4988523;28;20038;-85
2022/01/28 14:57:43;;;;;;;0.40;0.30;;;;;;;;;;4991085;28;20026;-85
2022/01/28 15:00:10;;;;;;;0.95;0.40;;;;;;;;;;4989824;28;20030;-86
2022/01/28 15:02:36;;;;;;;0.35;0.20;;;;;;;;;;4990261;28;20042;-85
2022/01/28 15:05:04;;;;;;;0.10;0.10;;;;;;;;;;4985473;28;20011;-85
2022/01/28 15:07:32;;;;;;;0.20;0.15;;;;;;;;;;4983974;28;20471;-85
2022/01/28 15:09:59;;;;;;;0.05;0.05;;;;;;;;;;4983633;28;20052;-85
2022/01/28 15:12:25;;;;;;;0.82;0.20;;;;;;;;;;4983567;28;20377;-85
2022/01/28 15:14:52;;;;;;;0.38;0.30;;;;;;;;;;4983345;28;20049;-85
2022/01/28 15:17:18;;;;;;;2.13;0.30;;;;;;;;;;4986926;28;20027;-86
2022/01/28 15:19:45;;;;;;;0.10;0.10;;;;;;;;;;5002105;28;20023;-86
2022/01/28 15:22:11;;;;;;;0.03;0.03;;;;;;;;;;4984649;28;20121;-86
2022/01/28 15:24:37;;;;;;;0.20;0.20;;;;;;;;;;4985217;28;20427;-85
2022/01/28 15:27:03;;;;;;;0.13;0.13;;;;;;;;;;4985635;28;20033;-86
2022/01/28 15:37:09;;;;;;;0.70;0.47;;;;;;;;;;4991313;28;20034;-84
2022/01/28 15:39:35;;;;;;;0.98;0.60;;;;;;;;;;4987763;28;20041;-83
2022/01/28 15:42:02;;;;;;;1.65;0.70;;;;;;;;;;4987940;28;20179;-84
2022/01/28 15:44:28;;;;;;;0.75;0.52;;;;;;;;;;5003792;28;20027;-84
2022/01/28 15:46:54;;;;;;;2.03;0.60;;;;;;;;;;5018914;28;20403;-84
2022/01/28 15:49:22;;;;;;;0.50;0.40;;;;;;;;;;4989465;28;20038;-84
2022/01/28 15:51:48;;;;;;;0.50;0.30;;;;;;;;;;4982846;28;20026;-84
2022/01/28 15:54:14;;;;;;;0.93;0.55;;;;;;;;;;4986907;28;20022;-84
2022/01/28 15:56:40;;;;;;;0.75;0.30;;;;;;;;;;5003002;28;20467;-83
2022/01/28 15:59:06;;;;;;;0.30;0.20;;;;;;;;;;4990412;28;20533;-84
2022/01/28 16:01:32;;;;;;;0.35;0.20;;;;;;;;;;5002738;28;20069;-83
2022/01/28 16:03:58;;;;;;;0.88;0.15;;;;;;;;;;4981249;28;20058;-84
2022/01/28 16:06:25;;;;;;;0.25;0.20;;;;;;;;;;4995279;28;20080;-84
2022/01/28 16:08:51;;;;;;;0.73;0.40;;;;;;;;;;4987257;28;20029;-84
2022/01/28 16:11:19;;;;;;;0.15;0.15;;;;;;;;;;5019535;28;20027;-84
2022/01/28 16:18:57;;;;;;;0.20;0.20;;;;;;;;;;4987549;28;20142;-84
2022/01/28 16:21:23;;;;;;;0.20;0.17;;;;;;;;;;5002181;28;20062;-84
2022/01/28 16:23:49;;;;;;;0.13;0.13;;;;;;;;;;5002767;28;20030;-84
2022/01/28 16:26:15;;;;;;;0.40;0.40;;;;;;;;;;5018190;28;20029;-84
2022/01/28 16:28:41;;;;;;;1.33;0.40;;;;;;;;;;4989242;28;20022;-83
2022/01/28 16:31:07;;;;;;;0.20;0.20;;;;;;;;;;5002360;28;20156;-83
2022/01/28 16:33:33;;;;;;;3.40;0.40;;;;;;;;;;4986394;28;20026;-84